createdAt,value
2018-04-25T00:00:10.292Z,15.02
2018-04-25T00:01:10.325Z,15.00
2018-04-25T00:02:10.277Z,15.09
2018-04-25T00:03:10.272Z,15.10
2018-04-25T00:04:10.264Z,15.02
2018-04-25T00:05:10.258Z,14.97
2018-04-25T00:06:10.251Z,15.00
2018-04-25T00:07:10.244Z,14.96
2018-04-25T00:08:11.889Z,15.06
2018-04-25T00:09:10.229Z,15.06
2018-04-25T00:10:10.223Z,15.06
2018-04-25T00:11:10.216Z,15.04
2018-04-25T00:12:10.209Z,15.02
2018-04-25T00:13:10.201Z,15.09
2018-04-25T00:14:10.194Z,15.04
2018-04-25T00:15:10.187Z,15.07
2018-04-25T00:16:10.186Z,15.10
2018-04-25T00:17:10.174Z,15.06
2018-04-25T00:18:10.169Z,15.06
2018-04-25T00:19:10.161Z,15.06
2018-04-25T00:20:10.154Z,15.10
2018-04-25T00:21:10.145Z,15.02
2018-04-25T00:22:10.139Z,15.07
2018-04-25T00:23:10.132Z,15.02
2018-04-25T00:24:10.126Z,15.03
2018-04-25T00:25:10.118Z,15.04
2018-04-25T00:26:11.663Z,15.09
2018-04-25T00:27:10.105Z,15.06
2018-04-25T00:28:10.097Z,15.09
2018-04-25T00:29:10.090Z,15.06
2018-04-25T00:30:10.083Z,15.14
2018-04-25T00:31:10.076Z,15.07
2018-04-25T00:32:13.974Z,15.14
2018-04-25T00:33:10.063Z,15.15
2018-04-25T00:34:10.055Z,15.15
2018-04-25T00:35:10.050Z,15.06
2018-04-25T00:36:10.041Z,15.07
2018-04-25T00:37:10.034Z,15.17
2018-04-25T00:38:10.027Z,15.21
2018-04-25T00:39:10.023Z,15.25
2018-04-25T00:40:10.014Z,15.21
2018-04-25T00:41:10.006Z,15.19
2018-04-25T00:42:09.999Z,15.22
2018-04-25T00:43:09.992Z,15.24
2018-04-25T00:44:12.288Z,15.19
2018-04-25T00:45:09.979Z,15.21
2018-04-25T00:46:09.971Z,15.21
2018-04-25T00:47:09.965Z,15.15
2018-04-25T00:48:09.958Z,15.19
2018-04-25T00:49:09.950Z,15.17
2018-04-25T00:50:10.699Z,15.18
2018-04-25T00:51:09.938Z,15.21
2018-04-25T00:52:09.931Z,15.24
2018-04-25T00:53:09.922Z,15.24
2018-04-25T00:54:09.915Z,15.15
2018-04-25T00:55:09.910Z,15.18
2018-04-25T00:56:09.903Z,15.19
2018-04-25T00:57:09.896Z,15.18
2018-04-25T00:58:09.888Z,15.21
2018-04-25T00:59:09.881Z,15.22
2018-04-25T01:00:09.875Z,15.18
2018-04-25T01:01:09.870Z,15.17
2018-04-25T01:02:12.163Z,15.04
2018-04-25T01:03:09.853Z,15.10
2018-04-25T01:04:09.848Z,15.14
2018-04-25T01:05:09.839Z,15.15
2018-04-25T01:06:09.832Z,15.14
2018-04-25T01:07:09.826Z,15.06
2018-04-25T01:08:09.820Z,15.10
2018-04-25T01:09:09.812Z,15.04
2018-04-25T01:10:09.805Z,14.97
2018-04-25T01:11:09.798Z,15.06
2018-04-25T01:12:09.792Z,15.09
2018-04-25T01:13:09.784Z,15.06
2018-04-25T01:14:12.136Z,15.04
2018-04-25T01:15:09.770Z,15.03
2018-04-25T01:16:09.764Z,15.06
2018-04-25T01:17:09.758Z,15.07
2018-04-25T01:18:09.750Z,15.02
2018-04-25T01:19:09.745Z,15.00
2018-04-25T01:20:10.538Z,15.06
2018-04-25T01:21:09.729Z,15.04
2018-04-25T01:22:09.722Z,15.06
2018-04-25T01:23:09.718Z,15.07
2018-04-25T01:24:09.711Z,15.03
2018-04-25T01:25:09.703Z,15.09
2018-04-25T01:26:09.695Z,15.09
2018-04-25T01:27:09.689Z,15.04
2018-04-25T01:28:09.686Z,15.06
2018-04-25T01:29:09.674Z,15.02
2018-04-25T01:30:09.668Z,15.09
2018-04-25T01:31:09.661Z,15.07
2018-04-25T01:32:11.206Z,15.04
2018-04-25T01:33:09.648Z,14.96
2018-04-25T01:34:09.640Z,15.06
2018-04-25T01:35:09.634Z,15.06
2018-04-25T01:36:09.627Z,14.97
2018-04-25T01:37:09.620Z,15.02
2018-04-25T01:38:09.613Z,14.99
2018-04-25T01:39:09.608Z,14.97
2018-04-25T01:40:09.603Z,15.00
2018-04-25T01:41:09.593Z,15.02
2018-04-25T01:42:09.590Z,15.00
2018-04-25T01:43:09.580Z,14.96
2018-04-25T01:44:09.573Z,14.96
2018-04-25T01:45:09.566Z,14.92
2018-04-25T01:46:09.563Z,14.94
2018-04-25T01:47:09.553Z,14.94
2018-04-25T01:48:09.547Z,14.97
2018-04-25T01:49:09.539Z,14.97
2018-04-25T01:50:10.283Z,14.94
2018-04-25T01:51:09.526Z,14.89
2018-04-25T01:52:09.523Z,14.89
2018-04-25T01:53:09.511Z,14.81
2018-04-25T01:54:09.506Z,14.81
2018-04-25T01:55:09.499Z,14.78
2018-04-25T01:56:10.245Z,14.77
2018-04-25T01:57:09.484Z,14.78
2018-04-25T01:58:09.478Z,14.77
2018-04-25T01:59:09.472Z,14.84
2018-04-25T02:00:09.464Z,14.82
2018-04-25T02:01:09.456Z,14.78
2018-04-25T02:02:09.450Z,14.78
2018-04-25T02:03:09.444Z,14.79
2018-04-25T02:04:09.437Z,14.81
2018-04-25T02:05:09.429Z,14.82
2018-04-25T02:06:09.423Z,14.77
2018-04-25T02:07:09.417Z,14.79
2018-04-25T02:08:10.160Z,14.81
2018-04-25T02:09:09.402Z,14.77
2018-04-25T02:10:09.394Z,14.77
2018-04-25T02:11:09.388Z,14.69
2018-04-25T02:12:09.381Z,14.73
2018-04-25T02:13:09.374Z,14.69
2018-04-25T02:14:09.367Z,14.72
2018-04-25T02:15:09.361Z,14.60
2018-04-25T02:16:09.359Z,14.77
2018-04-25T02:17:09.348Z,14.70
2018-04-25T02:18:09.340Z,14.62
2018-04-25T02:19:09.334Z,14.60
2018-04-25T02:20:09.325Z,14.65
2018-04-25T02:21:09.318Z,14.54
2018-04-25T02:22:09.312Z,14.66
2018-04-25T02:23:09.304Z,14.63
2018-04-25T02:24:09.297Z,14.58
2018-04-25T02:25:09.291Z,14.55
2018-04-25T02:26:10.034Z,14.50
2018-04-25T02:27:09.276Z,14.43
2018-04-25T02:28:09.270Z,14.47
2018-04-25T02:29:09.261Z,14.41
2018-04-25T02:30:09.255Z,14.43
2018-04-25T02:31:09.247Z,14.40
2018-04-25T02:32:10.798Z,14.40
2018-04-25T02:33:09.234Z,14.41
2018-04-25T02:34:09.227Z,14.29
2018-04-25T02:35:09.219Z,14.28
2018-04-25T02:36:09.216Z,14.33
2018-04-25T02:37:09.209Z,14.23
2018-04-25T02:38:09.200Z,14.30
2018-04-25T02:39:09.195Z,14.22
2018-04-25T02:40:09.183Z,14.28
2018-04-25T02:41:09.175Z,14.26
2018-04-25T02:42:09.168Z,14.33
2018-04-25T02:43:09.162Z,14.23
2018-04-25T02:44:09.156Z,14.23
2018-04-25T02:45:09.146Z,14.32
2018-04-25T02:46:09.140Z,14.23
2018-04-25T02:47:09.133Z,14.23
2018-04-25T02:48:09.127Z,14.26
2018-04-25T02:49:09.118Z,14.26
2018-04-25T02:50:09.111Z,14.29
2018-04-25T02:51:09.105Z,14.28
2018-04-25T02:52:09.097Z,14.22
2018-04-25T02:53:09.089Z,14.30
2018-04-25T02:54:09.083Z,14.25
2018-04-25T02:55:09.076Z,14.28
2018-04-25T02:56:09.823Z,14.28
2018-04-25T02:57:09.059Z,14.29
2018-04-25T02:58:09.053Z,14.26
2018-04-25T02:59:09.045Z,14.28
2018-04-25T03:00:09.042Z,14.25
2018-04-25T03:01:09.031Z,14.22
2018-04-25T03:02:09.025Z,14.25
2018-04-25T03:03:09.018Z,14.23
2018-04-25T03:04:09.010Z,14.28
2018-04-25T03:05:09.002Z,14.20
2018-04-25T03:06:08.995Z,14.29
2018-04-25T03:07:08.991Z,14.23
2018-04-25T03:08:12.134Z,14.25
2018-04-25T03:09:08.973Z,14.25
2018-04-25T03:10:08.965Z,14.18
2018-04-25T03:11:08.959Z,14.14
2018-04-25T03:12:08.952Z,14.26
2018-04-25T03:13:08.945Z,14.29
2018-04-25T03:14:10.488Z,14.22
2018-04-25T03:15:08.929Z,14.20
2018-04-25T03:16:08.922Z,14.28
2018-04-25T03:17:08.914Z,14.22
2018-04-25T03:18:08.907Z,14.22
2018-04-25T03:19:08.900Z,14.15
2018-04-25T03:20:09.694Z,14.22
2018-04-25T03:21:08.885Z,14.18
2018-04-25T03:22:08.878Z,14.22
2018-04-25T03:23:08.871Z,14.25
2018-04-25T03:24:08.865Z,14.25
2018-04-25T03:25:08.856Z,14.20
2018-04-25T03:26:09.649Z,14.25
2018-04-25T03:27:08.841Z,14.25
2018-04-25T03:28:08.834Z,14.20
2018-04-25T03:29:08.827Z,14.22
2018-04-25T03:30:08.819Z,14.20
2018-04-25T03:31:08.812Z,14.17
2018-04-25T03:32:08.805Z,14.20
2018-04-25T03:33:08.797Z,14.15
2018-04-25T03:34:08.790Z,14.14
2018-04-25T03:35:08.782Z,14.15
2018-04-25T03:36:08.775Z,14.20
2018-04-25T03:37:08.767Z,14.20
2018-04-25T03:38:10.313Z,14.25
2018-04-25T03:39:08.753Z,14.17
2018-04-25T03:40:08.750Z,14.26
2018-04-25T03:41:08.827Z,14.20
2018-04-25T03:42:08.730Z,14.18
2018-04-25T03:43:08.724Z,14.12
2018-04-25T03:44:11.774Z,14.20
2018-04-25T03:45:08.709Z,14.12
2018-04-25T03:46:08.702Z,14.15
2018-04-25T03:47:08.696Z,14.15
2018-04-25T03:48:08.688Z,14.08
2018-04-25T03:49:08.680Z,14.08
2018-04-25T03:50:08.673Z,14.05
2018-04-25T03:51:08.667Z,14.18
2018-04-25T03:52:08.660Z,14.17
2018-04-25T03:53:08.651Z,14.08
2018-04-25T03:54:08.645Z,14.17
2018-04-25T03:55:08.636Z,14.11
2018-04-25T03:56:08.630Z,14.17
2018-04-25T03:57:08.621Z,14.11
2018-04-25T03:58:08.614Z,14.07
2018-04-25T03:59:08.646Z,14.07
2018-04-25T04:00:08.600Z,14.07
2018-04-25T04:01:08.591Z,14.11
2018-04-25T04:02:10.941Z,14.12
2018-04-25T04:03:08.578Z,14.07
2018-04-25T04:04:08.571Z,14.08
2018-04-25T04:05:08.563Z,14.07
2018-04-25T04:06:08.555Z,14.11
2018-04-25T04:07:08.548Z,14.08
2018-04-25T04:08:09.342Z,14.12
2018-04-25T04:09:08.533Z,14.08
2018-04-25T04:10:08.526Z,14.10
2018-04-25T04:11:08.520Z,14.05
2018-04-25T04:12:08.512Z,14.05
2018-04-25T04:13:08.504Z,14.08
2018-04-25T04:14:08.497Z,14.04
2018-04-25T04:15:08.489Z,14.04
2018-04-25T04:16:08.483Z,14.08
2018-04-25T04:17:08.474Z,14.05
2018-04-25T04:18:08.468Z,13.99
2018-04-25T04:19:08.461Z,14.04
2018-04-25T04:20:10.806Z,14.05
2018-04-25T04:21:08.445Z,14.03
2018-04-25T04:22:08.437Z,14.04
2018-04-25T04:23:08.431Z,13.85
2018-04-25T04:24:08.423Z,13.90
2018-04-25T04:25:08.421Z,13.87
2018-04-25T04:26:08.407Z,13.99
2018-04-25T04:27:08.400Z,14.03
2018-04-25T04:28:08.394Z,13.90
2018-04-25T04:29:08.384Z,13.95
2018-04-25T04:30:08.378Z,13.90
2018-04-25T04:31:08.371Z,13.95
2018-04-25T04:32:08.364Z,13.96
2018-04-25T04:33:08.356Z,13.93
2018-04-25T04:34:08.354Z,13.95
2018-04-25T04:35:08.341Z,13.95
2018-04-25T04:36:08.334Z,13.95
2018-04-25T04:37:08.331Z,13.90
2018-04-25T04:38:09.925Z,13.89
2018-04-25T04:39:08.312Z,13.90
2018-04-25T04:40:08.304Z,13.96
2018-04-25T04:41:08.297Z,14.00
2018-04-25T04:42:08.289Z,13.97
2018-04-25T04:43:08.335Z,14.05
2018-04-25T04:44:08.274Z,13.99
2018-04-25T04:45:08.267Z,14.03
2018-04-25T04:46:08.259Z,14.04
2018-04-25T04:47:08.254Z,13.95
2018-04-25T04:48:08.247Z,13.92
2018-04-25T04:49:08.237Z,13.93
2018-04-25T04:50:08.981Z,13.90
2018-04-25T04:51:08.225Z,13.89
2018-04-25T04:52:08.215Z,13.87
2018-04-25T04:53:08.207Z,13.89
2018-04-25T04:54:08.200Z,13.85
2018-04-25T04:55:08.193Z,13.90
2018-04-25T04:56:09.037Z,13.87
2018-04-25T04:57:08.179Z,13.86
2018-04-25T04:58:08.171Z,13.89
2018-04-25T04:59:08.164Z,13.87
2018-04-25T05:00:08.158Z,13.90
2018-04-25T05:01:08.148Z,13.85
2018-04-25T05:02:08.140Z,13.85
2018-04-25T05:03:08.134Z,13.86
2018-04-25T05:04:08.132Z,13.85
2018-04-25T05:05:08.123Z,13.79
2018-04-25T05:06:08.113Z,13.78
2018-04-25T05:07:08.103Z,13.89
2018-04-25T05:08:08.848Z,13.87
2018-04-25T05:09:08.090Z,13.92
2018-04-25T05:10:08.081Z,13.93
2018-04-25T05:11:08.075Z,13.90
2018-04-25T05:12:08.068Z,13.92
2018-04-25T05:13:08.091Z,14.00
2018-04-25T05:14:10.404Z,13.95
2018-04-25T05:15:08.045Z,13.90
2018-04-25T05:16:08.038Z,13.96
2018-04-25T05:17:08.029Z,13.95
2018-04-25T05:18:08.023Z,13.92
2018-04-25T05:19:08.015Z,13.95
2018-04-25T05:20:09.560Z,13.83
2018-04-25T05:21:07.999Z,13.87
2018-04-25T05:22:07.991Z,13.85
2018-04-25T05:23:07.985Z,13.75
2018-04-25T05:24:07.977Z,13.77
2018-04-25T05:25:07.969Z,13.63
2018-04-25T05:26:08.763Z,13.63
2018-04-25T05:27:07.955Z,13.44
2018-04-25T05:28:07.948Z,13.22
2018-04-25T05:29:07.940Z,12.94
2018-04-25T05:30:07.930Z,12.87
2018-04-25T05:31:07.932Z,12.86
2018-04-25T05:32:08.735Z,12.70
2018-04-25T05:33:07.907Z,12.64
2018-04-25T05:34:07.899Z,12.55
2018-04-25T05:35:07.891Z,12.55
2018-04-25T05:36:07.884Z,12.45
2018-04-25T05:37:07.874Z,12.50
2018-04-25T05:38:07.873Z,12.32
2018-04-25T05:39:07.857Z,12.28
2018-04-25T05:40:07.849Z,12.21
2018-04-25T05:41:07.840Z,12.17
2018-04-25T05:42:07.833Z,12.12
2018-04-25T05:43:07.823Z,12.13
2018-04-25T05:44:07.816Z,12.10
2018-04-25T05:45:07.806Z,12.00
2018-04-25T05:46:07.798Z,11.95
2018-04-25T05:47:07.790Z,12.10
2018-04-25T05:48:07.780Z,12.04
2018-04-25T05:49:07.772Z,11.97
2018-04-25T05:50:11.718Z,12.03
2018-04-25T05:51:07.754Z,12.03
2018-04-25T05:52:07.746Z,11.95
2018-04-25T05:53:07.736Z,11.94
2018-04-25T05:54:07.728Z,12.02
2018-04-25T05:55:07.719Z,11.88
2018-04-25T05:56:08.460Z,12.06
2018-04-25T05:57:07.701Z,12.02
2018-04-25T05:58:07.692Z,11.86
2018-04-25T05:59:07.685Z,11.91
2018-04-25T06:00:07.676Z,11.83
2018-04-25T06:01:07.666Z,11.83
2018-04-25T06:02:07.658Z,11.83
2018-04-25T06:03:07.649Z,11.94
2018-04-25T06:04:07.641Z,11.94
2018-04-25T06:05:07.630Z,11.90
2018-04-25T06:06:07.622Z,11.94
2018-04-25T06:07:07.621Z,11.86
2018-04-25T06:08:08.356Z,11.91
2018-04-25T06:09:07.596Z,11.90
2018-04-25T06:10:07.588Z,11.97
2018-04-25T06:11:07.581Z,11.97
2018-04-25T06:12:07.582Z,11.86
2018-04-25T06:13:07.563Z,11.95
2018-04-25T06:14:09.906Z,11.86
2018-04-25T06:15:07.545Z,11.90
2018-04-25T06:16:07.540Z,11.97
2018-04-25T06:17:07.531Z,11.99
2018-04-25T06:18:07.521Z,11.84
2018-04-25T06:19:07.513Z,11.94
2018-04-25T06:20:08.377Z,11.95
2018-04-25T06:21:07.495Z,12.00
2018-04-25T06:22:07.487Z,12.02
2018-04-25T06:23:07.478Z,12.00
2018-04-25T06:24:07.469Z,12.03
2018-04-25T06:25:07.463Z,12.04
2018-04-25T06:26:08.955Z,12.04
2018-04-25T06:27:07.448Z,12.00
2018-04-25T06:28:07.515Z,12.06
2018-04-25T06:29:07.427Z,12.07
2018-04-25T06:30:07.420Z,12.15
2018-04-25T06:31:07.410Z,12.15
2018-04-25T06:32:07.402Z,12.22
2018-04-25T06:33:07.393Z,12.28
2018-04-25T06:34:07.387Z,12.20
2018-04-25T06:35:07.379Z,12.20
2018-04-25T06:36:07.370Z,12.21
2018-04-25T06:37:07.361Z,12.29
2018-04-25T06:38:08.105Z,12.06
2018-04-25T06:39:07.344Z,11.99
2018-04-25T06:40:07.337Z,12.02
2018-04-25T06:41:07.328Z,11.87
2018-04-25T06:42:07.320Z,12.02
2018-04-25T06:43:07.311Z,11.95
2018-04-25T06:44:07.303Z,11.99
2018-04-25T06:45:07.431Z,12.02
2018-04-25T06:46:07.290Z,11.95
2018-04-25T06:47:07.277Z,12.03
2018-04-25T06:48:07.268Z,11.95
2018-04-25T06:49:07.263Z,12.07
2018-04-25T06:50:08.002Z,11.91
2018-04-25T06:51:07.244Z,12.06
2018-04-25T06:52:07.235Z,12.06
2018-04-25T06:53:07.230Z,12.02
2018-04-25T06:54:07.218Z,12.03
2018-04-25T06:55:07.209Z,12.12
2018-04-25T06:56:08.803Z,12.13
2018-04-25T06:57:07.192Z,12.17
2018-04-25T06:58:07.184Z,12.15
2018-04-25T06:59:07.177Z,12.24
2018-04-25T07:00:07.168Z,12.15
2018-04-25T07:01:07.164Z,12.15
2018-04-25T07:02:07.157Z,12.18
2018-04-25T07:03:07.144Z,12.28
2018-04-25T07:04:07.142Z,12.24
2018-04-25T07:05:07.132Z,12.31
2018-04-25T07:06:07.122Z,12.28
2018-04-25T07:07:07.113Z,12.18
2018-04-25T07:08:08.704Z,12.18
2018-04-25T07:09:07.098Z,12.22
2018-04-25T07:10:07.089Z,12.29
2018-04-25T07:11:07.081Z,12.36
2018-04-25T07:12:07.075Z,12.31
2018-04-25T07:13:07.065Z,12.28
2018-04-25T07:14:07.075Z,12.45
2018-04-25T07:15:07.054Z,12.42
2018-04-25T07:16:07.044Z,12.45
2018-04-25T07:17:07.035Z,12.58
2018-04-25T07:18:07.029Z,12.58
2018-04-25T07:19:07.023Z,12.54
2018-04-25T07:20:07.115Z,12.60
2018-04-25T07:21:07.008Z,12.53
2018-04-25T07:22:07.004Z,12.64
2018-04-25T07:23:06.996Z,12.65
2018-04-25T07:24:06.988Z,12.75
2018-04-25T07:25:06.981Z,12.79
2018-04-25T07:26:07.724Z,12.86
2018-04-25T07:27:06.967Z,12.87
2018-04-25T07:28:06.961Z,12.85
2018-04-25T07:29:06.955Z,12.86
2018-04-25T07:30:06.949Z,12.91
2018-04-25T07:31:06.944Z,12.86
2018-04-25T07:32:06.938Z,12.91
2018-04-25T07:33:06.931Z,12.93
2018-04-25T07:34:06.928Z,12.91
2018-04-25T07:35:06.920Z,13.03
2018-04-25T07:36:06.914Z,13.09
2018-04-25T07:37:06.908Z,13.13
2018-04-25T07:38:07.703Z,13.12
2018-04-25T07:39:06.898Z,13.12
2018-04-25T07:40:06.971Z,13.11
2018-04-25T07:41:06.887Z,13.12
2018-04-25T07:42:06.882Z,13.23
2018-04-25T07:43:06.878Z,13.53
2018-04-25T07:44:06.874Z,13.65
2018-04-25T07:45:06.870Z,13.63
2018-04-25T07:46:06.866Z,13.65
2018-04-25T07:47:06.864Z,13.70
2018-04-25T07:48:06.862Z,13.68
2018-04-25T07:49:06.857Z,13.65
2018-04-25T07:50:08.407Z,13.71
2018-04-25T07:51:06.858Z,13.77
2018-04-25T07:52:06.902Z,13.68
2018-04-25T07:53:06.849Z,13.67
2018-04-25T07:54:06.844Z,13.67
2018-04-25T07:55:06.840Z,13.67
2018-04-25T07:56:09.194Z,13.67
2018-04-25T07:57:06.835Z,13.77
2018-04-25T07:58:06.830Z,13.86
2018-04-25T07:59:06.827Z,13.90
2018-04-25T08:00:06.826Z,14.10
2018-04-25T08:01:06.823Z,14.18
2018-04-25T08:02:06.820Z,14.25
2018-04-25T08:03:06.818Z,14.15
2018-04-25T08:04:06.817Z,14.05
2018-04-25T08:05:06.813Z,14.15
2018-04-25T08:06:06.811Z,14.30
2018-04-25T08:07:06.811Z,14.40
2018-04-25T08:08:06.809Z,14.48
2018-04-25T08:09:06.807Z,14.68
2018-04-25T08:10:06.809Z,14.85
2018-04-25T08:11:06.807Z,14.81
2018-04-25T08:12:06.807Z,14.63
2018-04-25T08:13:06.805Z,14.65
2018-04-25T08:14:06.806Z,14.69
2018-04-25T08:15:06.806Z,14.85
2018-04-25T08:16:06.806Z,14.85
2018-04-25T08:17:06.807Z,14.88
2018-04-25T08:18:06.808Z,15.07
2018-04-25T08:19:06.808Z,15.00
2018-04-25T08:20:06.810Z,14.78
2018-04-25T08:21:06.810Z,14.77
2018-04-25T08:22:06.809Z,14.79
2018-04-25T08:23:06.809Z,15.06
2018-04-25T08:24:06.815Z,15.04
2018-04-25T08:25:06.811Z,15.18
2018-04-25T08:26:07.563Z,15.33
2018-04-25T08:27:06.814Z,15.47
2018-04-25T08:28:06.816Z,15.58
2018-04-25T08:29:06.818Z,15.67
2018-04-25T08:30:06.819Z,15.79
2018-04-25T08:31:06.822Z,16.02
2018-04-25T08:32:07.733Z,16.23
2018-04-25T08:33:06.828Z,16.33
2018-04-25T08:34:06.834Z,16.32
2018-04-25T08:35:06.838Z,16.28
2018-04-25T08:36:06.840Z,16.29
2018-04-25T08:37:06.844Z,16.10
2018-04-25T08:38:06.848Z,16.28
2018-04-25T08:39:06.853Z,16.46
2018-04-25T08:40:06.858Z,16.64
2018-04-25T08:41:06.862Z,16.68
2018-04-25T08:42:06.867Z,16.58
2018-04-25T08:43:06.872Z,16.64
2018-04-25T08:44:06.879Z,16.89
2018-04-25T08:45:06.935Z,16.96
2018-04-25T08:46:06.891Z,17.06
2018-04-25T08:47:06.895Z,16.84
2018-04-25T08:48:06.899Z,16.74
2018-04-25T08:49:06.903Z,16.99
2018-04-25T08:50:08.612Z,17.20
2018-04-25T08:51:06.918Z,17.52
2018-04-25T08:52:06.924Z,17.38
2018-04-25T08:53:06.929Z,17.30
2018-04-25T08:54:06.937Z,17.30
2018-04-25T08:55:06.941Z,17.41
2018-04-25T08:56:08.499Z,17.41
2018-04-25T08:57:06.953Z,17.57
2018-04-25T08:58:06.958Z,17.45
2018-04-25T08:59:06.966Z,17.15
2018-04-25T09:00:06.969Z,16.75
2018-04-25T09:01:06.972Z,16.46
2018-04-25T09:02:06.975Z,16.46
2018-04-25T09:03:06.978Z,16.32
2018-04-25T09:04:06.983Z,16.05
2018-04-25T09:05:06.982Z,15.77
2018-04-25T09:06:06.982Z,15.62
2018-04-25T09:07:06.983Z,15.57
2018-04-25T09:08:08.534Z,15.67
2018-04-25T09:09:06.982Z,15.86
2018-04-25T09:10:06.983Z,16.10
2018-04-25T09:11:06.982Z,16.41
2018-04-25T09:12:06.982Z,16.78
2018-04-25T09:13:06.986Z,17.04
2018-04-25T09:14:06.985Z,17.34
2018-04-25T09:15:06.988Z,17.67
2018-04-25T09:16:06.991Z,17.76
2018-04-25T09:17:06.994Z,17.63
2018-04-25T09:18:06.999Z,17.57
2018-04-25T09:19:07.003Z,17.54
2018-04-25T09:20:07.007Z,17.34
2018-04-25T09:21:07.010Z,17.42
2018-04-25T09:22:07.014Z,17.44
2018-04-25T09:23:07.020Z,17.54
2018-04-25T09:24:07.032Z,17.52
2018-04-25T09:25:07.027Z,17.52
2018-04-25T09:26:07.132Z,17.72
2018-04-25T09:27:07.039Z,18.07
2018-04-25T09:28:07.043Z,18.01
2018-04-25T09:29:07.052Z,17.86
2018-04-25T09:30:07.054Z,17.67
2018-04-25T09:31:07.059Z,17.20
2018-04-25T09:32:07.064Z,17.22
2018-04-25T09:33:07.069Z,17.08
2018-04-25T09:34:07.074Z,16.97
2018-04-25T09:35:07.075Z,17.14
2018-04-25T09:36:07.077Z,17.22
2018-04-25T09:37:07.083Z,17.44
2018-04-25T09:38:07.084Z,17.68
2018-04-25T09:39:07.090Z,17.46
2018-04-25T09:40:07.096Z,17.11
2018-04-25T09:41:07.094Z,16.90
2018-04-25T09:42:07.098Z,16.79
2018-04-25T09:43:07.099Z,16.71
2018-04-25T09:44:07.852Z,16.60
2018-04-25T09:45:07.100Z,16.26
2018-04-25T09:46:07.101Z,16.09
2018-04-25T09:47:07.102Z,15.94
2018-04-25T09:48:07.101Z,15.76
2018-04-25T09:49:07.098Z,15.47
2018-04-25T09:50:08.653Z,15.42
2018-04-25T09:51:07.097Z,15.37
2018-04-25T09:52:07.095Z,14.99
2018-04-25T09:53:07.097Z,14.96
2018-04-25T09:54:07.091Z,14.69
2018-04-25T09:55:07.090Z,14.65
2018-04-25T09:56:07.086Z,14.43
2018-04-25T09:57:07.084Z,14.45
2018-04-25T09:58:07.162Z,14.47
2018-04-25T09:59:07.076Z,14.45
2018-04-25T10:00:07.072Z,14.41
2018-04-25T10:01:07.068Z,14.45
2018-04-25T10:02:07.917Z,14.44
2018-04-25T10:03:07.059Z,14.48
2018-04-25T10:04:07.100Z,14.44
2018-04-25T10:05:07.049Z,14.37
2018-04-25T10:06:07.045Z,14.32
2018-04-25T10:07:07.040Z,14.73
2018-04-25T10:08:07.035Z,14.89
2018-04-25T10:09:07.032Z,15.00
2018-04-25T10:10:07.028Z,15.39
2018-04-25T10:11:07.023Z,15.65
2018-04-25T10:12:07.021Z,15.77
2018-04-25T10:13:07.017Z,15.64
2018-04-25T10:14:07.017Z,15.58
2018-04-25T10:15:07.015Z,15.47
2018-04-25T10:16:07.010Z,15.44
2018-04-25T10:17:07.040Z,15.49
2018-04-25T10:18:07.004Z,15.62
2018-04-25T10:19:07.002Z,16.10
2018-04-25T10:20:09.452Z,16.60
2018-04-25T10:21:06.997Z,16.58
2018-04-25T10:22:06.996Z,16.61
2018-04-25T10:23:06.996Z,16.64
2018-04-25T10:24:06.996Z,16.64
2018-04-25T10:25:06.999Z,16.64
2018-04-25T10:26:06.996Z,16.38
2018-04-25T10:27:06.996Z,16.28
2018-04-25T10:28:06.997Z,16.00
2018-04-25T10:29:06.995Z,16.05
2018-04-25T10:30:06.994Z,16.00
2018-04-25T10:31:06.994Z,16.23
2018-04-25T10:32:07.101Z,16.24
2018-04-25T10:33:06.993Z,16.36
2018-04-25T10:34:06.992Z,16.42
2018-04-25T10:35:06.992Z,16.46
2018-04-25T10:36:06.991Z,16.65
2018-04-25T10:37:06.988Z,16.84
2018-04-25T10:38:06.989Z,17.01
2018-04-25T10:39:06.991Z,17.15
2018-04-25T10:40:06.991Z,16.93
2018-04-25T10:41:06.993Z,16.78
2018-04-25T10:42:06.994Z,16.41
2018-04-25T10:43:06.992Z,16.23
2018-04-25T10:44:08.622Z,16.05
2018-04-25T10:45:06.991Z,16.13
2018-04-25T10:46:06.990Z,16.09
2018-04-25T10:47:06.995Z,16.12
2018-04-25T10:48:06.989Z,15.95
2018-04-25T10:49:06.986Z,15.84
2018-04-25T10:50:08.537Z,15.77
2018-04-25T10:51:06.984Z,15.58
2018-04-25T10:52:06.988Z,15.54
2018-04-25T10:53:06.979Z,15.54
2018-04-25T10:54:06.977Z,15.55
2018-04-25T10:55:06.976Z,15.54
2018-04-25T10:56:06.973Z,15.82
2018-04-25T10:57:06.969Z,15.77
2018-04-25T10:58:06.967Z,15.75
2018-04-25T10:59:06.964Z,15.97
2018-04-25T11:00:06.963Z,16.26
2018-04-25T11:01:06.960Z,16.54
2018-04-25T11:02:06.959Z,16.87
2018-04-25T11:03:06.959Z,17.24
2018-04-25T11:04:06.959Z,17.71
2018-04-25T11:05:06.959Z,17.92
2018-04-25T11:06:06.959Z,18.05
2018-04-25T11:07:06.961Z,18.47
2018-04-25T11:08:06.964Z,18.80
2018-04-25T11:09:06.967Z,18.96
2018-04-25T11:10:06.974Z,18.74
2018-04-25T11:11:06.974Z,18.25
2018-04-25T11:12:06.979Z,17.92
2018-04-25T11:13:06.980Z,18.07
2018-04-25T11:14:07.734Z,18.10
2018-04-25T11:15:06.988Z,18.31
2018-04-25T11:16:06.993Z,18.22
2018-04-25T11:17:06.993Z,17.87
2018-04-25T11:18:06.997Z,17.80
2018-04-25T11:19:07.000Z,17.26
2018-04-25T11:20:07.002Z,17.02
2018-04-25T11:21:07.003Z,16.66
2018-04-25T11:22:07.004Z,16.47
2018-04-25T11:23:07.006Z,16.42
2018-04-25T11:24:07.005Z,16.36
2018-04-25T11:25:07.005Z,16.64
2018-04-25T11:26:07.005Z,16.61
2018-04-25T11:27:07.005Z,16.71
2018-04-25T11:28:07.005Z,16.68
2018-04-25T11:29:07.004Z,16.65
2018-04-25T11:30:07.006Z,16.66
2018-04-25T11:31:07.005Z,16.69
2018-04-25T11:32:07.757Z,16.84
2018-04-25T11:33:07.004Z,17.15
2018-04-25T11:34:07.004Z,17.27
2018-04-25T11:35:07.005Z,17.09
2018-04-25T11:36:07.005Z,17.04
2018-04-25T11:37:07.004Z,16.60
2018-04-25T11:38:07.010Z,16.43
2018-04-25T11:39:07.009Z,16.12
2018-04-25T11:40:07.005Z,16.08
2018-04-25T11:41:07.001Z,16.23
2018-04-25T11:42:07.000Z,16.31
2018-04-25T11:43:07.000Z,16.31
2018-04-25T11:44:07.798Z,16.23
2018-04-25T11:45:06.997Z,16.28
2018-04-25T11:46:06.993Z,16.23
2018-04-25T11:47:07.073Z,16.42
2018-04-25T11:48:06.989Z,16.49
2018-04-25T11:49:06.987Z,16.64
2018-04-25T11:50:06.985Z,16.56
2018-04-25T11:51:06.983Z,16.21
2018-04-25T11:52:06.983Z,16.12
2018-04-25T11:53:06.978Z,16.17
2018-04-25T11:54:06.976Z,16.26
2018-04-25T11:55:06.976Z,16.23
2018-04-25T11:56:06.973Z,16.38
2018-04-25T11:57:06.968Z,16.33
2018-04-25T11:58:06.978Z,16.23
2018-04-25T11:59:06.963Z,16.35
2018-04-25T12:00:06.966Z,16.29
2018-04-25T12:01:06.958Z,16.13
2018-04-25T12:02:06.956Z,16.23
2018-04-25T12:03:06.952Z,16.28
2018-04-25T12:04:06.949Z,16.24
2018-04-25T12:05:07.105Z,16.21
2018-04-25T12:06:06.943Z,16.08
2018-04-25T12:07:06.941Z,16.10
2018-04-25T12:08:07.037Z,16.13
2018-04-25T12:09:06.932Z,16.10
2018-04-25T12:10:06.929Z,16.21
2018-04-25T12:11:06.928Z,16.74
2018-04-25T12:12:06.924Z,17.30
2018-04-25T12:13:06.939Z,17.70
2018-04-25T12:14:07.670Z,17.71
2018-04-25T12:15:06.920Z,17.34
2018-04-25T12:16:06.919Z,17.14
2018-04-25T12:17:06.916Z,17.04
2018-04-25T12:18:06.916Z,16.89
2018-04-25T12:19:06.914Z,16.72
2018-04-25T12:20:06.909Z,16.50
2018-04-25T12:21:06.906Z,16.21
2018-04-25T12:22:06.904Z,15.82
2018-04-25T12:23:06.905Z,15.67
2018-04-25T12:24:06.898Z,15.43
2018-04-25T12:25:06.894Z,15.46
2018-04-25T12:26:07.697Z,15.37
2018-04-25T12:27:06.887Z,15.49
2018-04-25T12:28:06.884Z,15.40
2018-04-25T12:29:06.878Z,15.59
2018-04-25T12:30:06.877Z,15.59
2018-04-25T12:31:06.871Z,15.58
2018-04-25T12:32:07.618Z,15.61
2018-04-25T12:33:06.861Z,15.55
2018-04-25T12:34:06.858Z,15.62
2018-04-25T12:35:06.854Z,15.39
2018-04-25T12:36:06.849Z,15.44
2018-04-25T12:37:06.845Z,15.49
2018-04-25T12:38:07.590Z,15.57
2018-04-25T12:39:06.839Z,15.44
2018-04-25T12:40:06.868Z,15.46
2018-04-25T12:41:06.826Z,15.54
2018-04-25T12:42:06.822Z,15.49
2018-04-25T12:43:06.819Z,15.58
2018-04-25T12:44:06.813Z,15.57
2018-04-25T12:45:06.808Z,15.51
2018-04-25T12:46:06.804Z,15.43
2018-04-25T12:47:06.844Z,15.27
2018-04-25T12:48:06.795Z,15.31
2018-04-25T12:49:06.790Z,15.17
2018-04-25T12:50:06.786Z,15.27
2018-04-25T12:51:06.780Z,15.24
2018-04-25T12:52:06.776Z,15.19